createdAt,value
2023-02-14T00:01:50.008Z,101679.16
2023-02-14T00:04:18.649Z,101683.25
2023-02-14T00:06:46.225Z,101679.56
2023-02-14T00:09:15.779Z,101683.34
2023-02-14T00:11:44.034Z,101683.38
2023-02-14T00:14:30.643Z,101692.75
2023-02-14T00:17:00.753Z,101676.16
2023-02-14T00:19:28.204Z,101678.25
2023-02-14T00:21:55.594Z,101682.59
2023-02-14T00:24:25.746Z,101672.56
2023-02-14T00:26:53.581Z,101677.66
2023-02-14T00:29:23.615Z,101677.41
2023-02-14T00:31:51.583Z,101677.63
2023-02-14T00:34:19.083Z,101678.00
2023-02-14T00:36:46.923Z,101668.72
2023-02-14T00:39:16.626Z,101671.47
2023-02-14T00:41:44.219Z,101675.31
2023-02-14T00:44:12.277Z,101672.12
2023-02-14T00:46:40.333Z,101666.25
2023-02-14T00:49:07.859Z,101665.91
2023-02-14T00:51:35.451Z,101664.75
2023-02-14T00:54:03.463Z,101679.66
2023-02-14T00:56:31.614Z,101677.03
2023-02-14T00:58:59.038Z,101680.13
2023-02-14T01:01:26.880Z,101667.25
2023-02-14T01:03:54.554Z,101670.56
2023-02-14T01:06:22.003Z,101656.38
2023-02-14T01:08:50.546Z,101663.28
2023-02-14T01:11:20.705Z,101663.13
2023-02-14T01:13:49.685Z,101653.22
2023-02-14T01:16:19.872Z,101652.47
2023-02-14T01:18:48.152Z,101653.41
2023-02-14T01:21:28.954Z,101652.09
2023-02-14T01:23:59.654Z,101647.81
2023-02-14T01:26:28.966Z,101642.72
2023-02-14T01:28:57.038Z,101646.28
2023-02-14T01:31:27.318Z,101646.13
2023-02-14T01:33:57.690Z,101643.50
2023-02-14T01:36:26.389Z,101631.56
2023-02-14T01:38:59.898Z,101634.16
2023-02-14T01:41:29.565Z,101631.47
2023-02-14T01:44:06.535Z,101634.66
2023-02-14T01:46:36.987Z,101633.22
2023-02-14T01:49:14.121Z,101622.53
2023-02-14T01:51:46.103Z,101640.19
2023-02-14T01:54:13.657Z,101627.66
2023-02-14T01:56:44.604Z,101629.72
2023-02-14T01:59:17.211Z,101630.69
2023-02-14T02:01:45.377Z,101631.62
2023-02-14T02:04:16.385Z,101619.78
2023-02-14T02:06:51.747Z,101620.00
2023-02-14T02:09:31.724Z,101623.16
2023-02-14T02:11:59.716Z,101620.53
2023-02-14T02:14:27.776Z,101615.91
2023-02-14T02:17:17.078Z,101613.16
2023-02-14T02:20:18.865Z,101612.06
2023-02-14T02:22:59.787Z,101606.59
2023-02-14T02:25:48.562Z,101605.69
2023-02-14T02:28:32.416Z,101594.69
2023-02-14T02:31:33.399Z,101586.94
2023-02-14T02:34:03.827Z,101601.97
2023-02-14T02:36:51.805Z,101603.94
2023-02-14T02:39:33.136Z,101592.38
2023-02-14T02:42:21.800Z,101593.09
2023-02-14T02:45:14.103Z,101591.81
2023-02-14T02:47:46.038Z,101588.44
2023-02-14T02:50:47.259Z,101593.56
2023-02-14T02:53:32.924Z,101599.59
2023-02-14T02:56:28.634Z,101593.91
2023-02-14T02:59:23.484Z,101590.97
2023-02-14T03:02:00.205Z,101595.03
2023-02-14T03:04:46.631Z,101585.59
2023-02-14T03:07:33.020Z,101592.25
2023-02-14T03:10:04.995Z,101582.66
2023-02-14T03:12:37.400Z,101588.03
2023-02-14T03:15:22.629Z,101593.03
2023-02-14T03:18:13.969Z,101583.53
2023-02-14T03:20:55.081Z,101589.41
2023-02-14T03:23:26.117Z,101594.31
2023-02-14T03:26:12.812Z,101598.38
2023-02-14T03:29:06.594Z,101586.31
2023-02-14T03:31:44.489Z,101583.72
2023-02-14T03:34:16.428Z,101592.97
2023-02-14T03:36:50.577Z,101589.94
2023-02-14T03:39:33.084Z,101588.59
2023-02-14T03:42:06.496Z,101592.50
2023-02-14T03:44:35.803Z,101587.91
2023-02-14T03:47:07.629Z,101586.63
2023-02-14T03:49:40.531Z,101589.16
2023-02-14T03:52:09.833Z,101589.09
2023-02-14T03:54:37.625Z,101586.09
2023-02-14T03:57:14.219Z,101592.28
2023-02-14T03:59:42.376Z,101587.47
2023-02-14T04:02:21.966Z,101581.91
2023-02-14T04:04:50.406Z,101585.09
2023-02-14T04:07:20.826Z,101589.03
2023-02-14T04:09:48.872Z,101585.91
2023-02-14T04:12:21.726Z,101586.09
2023-02-14T04:14:51.379Z,101586.94
2023-02-14T04:17:37.795Z,101585.25
2023-02-14T04:20:05.887Z,101591.56
2023-02-14T04:22:33.556Z,101587.78
2023-02-14T04:25:01.119Z,101585.97
2023-02-14T04:27:28.542Z,101575.13
2023-02-14T04:29:56.259Z,101566.69
2023-02-14T04:32:23.721Z,101576.00
2023-02-14T04:34:51.123Z,101572.59
2023-02-14T04:37:19.834Z,101573.94
2023-02-14T04:39:47.338Z,101578.56
2023-02-14T04:42:14.729Z,101576.88
2023-02-14T04:44:42.589Z,101590.91
2023-02-14T04:47:10.314Z,101590.16
2023-02-14T04:49:37.869Z,101578.91
2023-02-14T04:52:06.293Z,101585.78
2023-02-14T04:54:33.867Z,101578.41
2023-02-14T04:57:01.501Z,101588.75
2023-02-14T04:59:29.225Z,101576.28
2023-02-14T05:01:56.666Z,101575.87
2023-02-14T05:04:24.782Z,101583.44
2023-02-14T05:06:52.667Z,101574.75
2023-02-14T05:09:20.171Z,101583.25
2023-02-14T05:11:47.619Z,101581.38
2023-02-14T05:14:15.329Z,101585.00
2023-02-14T05:16:42.783Z,101591.16
2023-02-14T05:19:10.277Z,101588.78
2023-02-14T05:21:38.662Z,101586.56
2023-02-14T05:24:06.159Z,101594.09
2023-02-14T05:26:33.754Z,101588.50
2023-02-14T05:29:01.664Z,101589.81
2023-02-14T05:31:29.323Z,101580.22
2023-02-14T05:33:56.909Z,101586.22
2023-02-14T05:36:24.739Z,101585.94
2023-02-14T05:38:52.217Z,101580.50
2023-02-14T05:41:19.634Z,101591.66
2023-02-14T05:43:47.333Z,101597.09
2023-02-14T05:46:14.936Z,101594.31
2023-02-14T05:48:42.394Z,101592.38
2023-02-14T05:51:10.909Z,101592.53
2023-02-14T05:53:38.850Z,101593.78
2023-02-14T05:56:06.683Z,101595.81
2023-02-14T05:58:34.671Z,101600.97
2023-02-14T06:01:02.633Z,101603.59
2023-02-14T06:03:30.384Z,101600.59
2023-02-14T06:05:57.866Z,101593.75
2023-02-14T06:08:25.377Z,101589.69
2023-02-14T06:10:53.080Z,101607.59
2023-02-14T06:13:20.484Z,101601.66
2023-02-14T06:15:47.977Z,101611.78
2023-02-14T06:18:15.659Z,101605.25
2023-02-14T06:20:43.072Z,101606.28
2023-02-14T06:23:11.110Z,101610.38
2023-02-14T06:25:38.819Z,101599.34
2023-02-14T06:28:06.732Z,101607.56
2023-02-14T06:30:34.321Z,101617.88
2023-02-14T06:33:02.255Z,101605.41
2023-02-14T06:35:29.790Z,101608.22
2023-02-14T06:37:57.233Z,101616.31
2023-02-14T06:40:25.151Z,101620.09
2023-02-14T06:42:52.535Z,101620.63
2023-02-14T06:45:19.925Z,101629.56
2023-02-14T06:47:47.648Z,101627.09
2023-02-14T06:50:15.072Z,101631.66
2023-02-14T06:52:42.969Z,101627.59
2023-02-14T06:55:13.194Z,101629.00
2023-02-14T06:57:40.700Z,101634.22
2023-02-14T07:00:08.847Z,101636.13
2023-02-14T07:02:36.560Z,101631.78
2023-02-14T07:05:04.476Z,101626.25
2023-02-14T07:07:31.874Z,101640.41
2023-02-14T07:09:59.649Z,101635.50
2023-02-14T07:12:27.147Z,101630.03
2023-02-14T07:14:54.741Z,101642.72
2023-02-14T07:17:23.882Z,101629.09
2023-02-14T07:19:51.359Z,101635.97
2023-02-14T07:22:18.801Z,101630.28
2023-02-14T07:24:46.497Z,101634.19
2023-02-14T07:27:13.971Z,101630.00
2023-02-14T07:29:41.448Z,101642.59
2023-02-14T07:32:09.418Z,101638.81
2023-02-14T07:34:36.916Z,101645.91
2023-02-14T07:37:04.402Z,101640.97
2023-02-14T07:39:32.178Z,101646.00
2023-02-14T07:41:59.653Z,101652.62
2023-02-14T07:44:27.459Z,101651.56
2023-02-14T07:46:55.227Z,101649.84
2023-02-14T07:49:22.640Z,101654.91
2023-02-14T07:51:50.046Z,101652.91
2023-02-14T07:54:19.656Z,101654.22
2023-02-14T07:56:47.735Z,101648.56
2023-02-14T07:59:15.164Z,101654.56
2023-02-14T08:01:42.976Z,101657.56
2023-02-14T08:04:13.584Z,101658.00
2023-02-14T08:06:41.624Z,101658.50
2023-02-14T08:09:10.197Z,101652.25
2023-02-14T08:11:56.558Z,101649.31
2023-02-14T08:14:23.933Z,101652.12
2023-02-14T08:16:51.364Z,101649.16
2023-02-14T08:19:18.495Z,101649.41
2023-02-14T08:21:45.695Z,101653.22
2023-02-14T08:24:13.377Z,101650.53
2023-02-14T08:26:40.518Z,101646.69
2023-02-14T08:29:07.737Z,101654.25
2023-02-14T08:31:36.605Z,101645.00
2023-02-14T08:34:04.573Z,101650.53
2023-02-14T08:36:31.793Z,101651.44
2023-02-14T08:38:59.394Z,101649.38
2023-02-14T08:41:26.811Z,101653.84
2023-02-14T08:43:54.190Z,101650.91
2023-02-14T08:46:21.693Z,101657.56
2023-02-14T08:48:50.119Z,101664.28
2023-02-14T08:51:17.414Z,101652.47
2023-02-14T08:53:46.310Z,101661.22
2023-02-14T08:56:14.408Z,101657.41
2023-02-14T08:58:41.697Z,101660.78
2023-02-14T09:01:12.952Z,101646.69
2023-02-14T09:03:40.507Z,101649.63
2023-02-14T09:06:08.363Z,101647.59
2023-02-14T09:08:36.799Z,101644.38
2023-02-14T09:11:23.081Z,101646.78
2023-02-14T09:13:51.212Z,101652.44
2023-02-14T09:16:18.956Z,101655.84
2023-02-14T09:18:46.710Z,101651.59
2023-02-14T09:21:15.325Z,101658.22
2023-02-14T09:23:42.752Z,101653.81
2023-02-14T09:26:11.509Z,101651.34
2023-02-14T09:28:39.073Z,101657.31
2023-02-14T09:31:10.045Z,101659.03
2023-02-14T09:33:37.412Z,101655.59
2023-02-14T09:36:23.757Z,101657.66
2023-02-14T09:38:51.019Z,101657.47
2023-02-14T09:41:30.832Z,101661.22
2023-02-14T09:44:08.157Z,101666.28
2023-02-14T09:46:37.546Z,101668.91
2023-02-14T09:49:04.916Z,101666.56
2023-02-14T09:51:32.515Z,101668.94
2023-02-14T09:54:12.596Z,101668.59
2023-02-14T09:57:04.039Z,101660.56
2023-02-14T09:59:44.654Z,101672.91
2023-02-14T10:02:30.882Z,101664.31
2023-02-14T10:05:18.624Z,101665.91
2023-02-14T10:07:59.553Z,101660.63
2023-02-14T10:10:43.288Z,101667.25
2023-02-14T10:13:31.612Z,101652.72
2023-02-14T10:16:05.908Z,101656.63
2023-02-14T10:18:36.301Z,101655.03
2023-02-14T10:21:03.966Z,101648.91
2023-02-14T10:23:31.134Z,101657.59
2023-02-14T10:26:08.319Z,101656.44
2023-02-14T10:28:37.676Z,101658.31
2023-02-14T10:31:23.858Z,101660.28
2023-02-14T10:33:51.545Z,101660.91
2023-02-14T10:36:21.563Z,101647.91
2023-02-14T10:38:57.254Z,101638.09
2023-02-14T10:41:30.723Z,101641.25
2023-02-14T10:44:36.772Z,101645.19
2023-02-14T10:47:15.957Z,101637.19
2023-02-14T10:49:48.458Z,101639.66
2023-02-14T10:52:25.234Z,101630.66
2023-02-14T10:54:56.430Z,101631.50
2023-02-14T10:57:32.324Z,101637.28
2023-02-14T11:00:06.878Z,101632.63
2023-02-14T11:02:45.875Z,101622.84
2023-02-14T11:05:25.645Z,101628.50
2023-02-14T11:07:53.566Z,101630.84
2023-02-14T11:10:26.676Z,101633.78
2023-02-14T11:12:54.389Z,101636.56
2023-02-14T11:15:34.072Z,101629.56
2023-02-14T11:18:36.538Z,101626.56
2023-02-14T11:21:05.631Z,101636.00
2023-02-14T11:23:39.086Z,101633.91
2023-02-14T11:26:26.542Z,101631.72
2023-02-14T11:28:58.142Z,101639.66
2023-02-14T11:31:45.805Z,101620.81
2023-02-14T11:34:28.711Z,101629.94
2023-02-14T11:36:56.595Z,101635.12
2023-02-14T11:39:33.418Z,101624.00
2023-02-14T11:42:04.461Z,101623.19
2023-02-14T11:44:33.467Z,101609.44
2023-02-14T11:47:19.599Z,101619.19
2023-02-14T11:50:01.408Z,101618.59
2023-02-14T11:52:29.922Z,101610.28
2023-02-14T11:54:58.239Z,101610.78
2023-02-14T11:57:35.414Z,101615.00
2023-02-14T12:00:11.671Z,101608.41
2023-02-14T12:02:39.928Z,101606.37
2023-02-14T12:05:21.666Z,101607.78
2023-02-14T12:07:55.998Z,101610.75
2023-02-14T12:10:23.651Z,101613.34
2023-02-14T12:12:50.814Z,101606.56
2023-02-14T12:15:24.308Z,101605.94
2023-02-14T12:18:13.186Z,101602.41
2023-02-14T12:20:49.691Z,101608.72
2023-02-14T12:23:36.757Z,101595.06
2023-02-14T12:26:06.440Z,101593.41
2023-02-14T12:28:39.531Z,101596.03
2023-02-14T12:31:13.173Z,101597.47
2023-02-14T12:33:40.837Z,101583.47
2023-02-14T12:36:22.475Z,101587.81
2023-02-14T12:38:58.666Z,101579.84
2023-02-14T12:41:31.955Z,101565.84
2023-02-14T12:44:27.928Z,101577.34
2023-02-14T12:47:03.437Z,101567.31
2023-02-14T12:49:37.226Z,101577.13
2023-02-14T12:52:22.989Z,101571.69
2023-02-14T12:55:09.205Z,101575.28
2023-02-14T12:57:41.797Z,101575.06
2023-02-14T13:00:09.379Z,101566.28
2023-02-14T13:02:55.431Z,101568.41
2023-02-14T13:05:26.058Z,101559.81
2023-02-14T13:08:11.679Z,101557.72
2023-02-14T13:11:00.678Z,101561.09
2023-02-14T13:13:37.751Z,101563.31
2023-02-14T13:16:17.644Z,101560.19
2023-02-14T13:18:59.367Z,101559.19
2023-02-14T13:21:31.583Z,101558.13
2023-02-14T13:24:25.055Z,101557.53
2023-02-14T13:26:56.514Z,101561.16
2023-02-14T13:29:27.275Z,101555.22
2023-02-14T13:31:57.124Z,101547.75
2023-02-14T13:34:28.691Z,101558.13
2023-02-14T13:36:57.544Z,101559.22
2023-02-14T13:39:37.799Z,101567.28
2023-02-14T13:42:06.763Z,101566.09
2023-02-14T13:44:47.982Z,101567.72
2023-02-14T13:47:25.485Z,101562.69
2023-02-14T13:49:54.806Z,101547.66
2023-02-14T13:52:38.439Z,101547.97
2023-02-14T13:55:10.010Z,101539.94
2023-02-14T13:57:37.712Z,101544.81
2023-02-14T14:00:25.420Z,101552.31
2023-02-14T14:02:56.585Z,101551.13
2023-02-14T14:05:30.047Z,101564.59
2023-02-14T14:08:16.174Z,101560.00
2023-02-14T14:10:46.610Z,101562.97
2023-02-14T14:13:33.208Z,101558.94
2023-02-14T14:16:19.260Z,101565.25
2023-02-14T14:18:47.175Z,101559.34
2023-02-14T14:21:15.648Z,101555.78
2023-02-14T14:23:42.902Z,101561.44
2023-02-14T14:26:43.128Z,101552.47
2023-02-14T14:29:14.219Z,101561.06
2023-02-14T14:31:42.073Z,101568.00
2023-02-14T14:34:14.919Z,101557.53
2023-02-14T14:36:42.480Z,101545.06
2023-02-14T14:39:10.152Z,101551.44
2023-02-14T14:41:37.308Z,101548.09
2023-02-14T14:44:05.014Z,101548.16
2023-02-14T14:46:32.292Z,101540.50
2023-02-14T14:48:59.487Z,101543.34
2023-02-14T14:51:30.953Z,101546.50
2023-02-14T14:54:03.313Z,101540.62
2023-02-14T14:56:32.308Z,101548.16
2023-02-14T14:59:15.793Z,101553.31
2023-02-14T15:01:44.113Z,101542.69
2023-02-14T15:04:12.581Z,101550.16
2023-02-14T15:06:40.217Z,101543.47
2023-02-14T15:09:15.171Z,101541.91
2023-02-14T15:12:01.056Z,101539.16
2023-02-14T15:14:28.960Z,101545.87
2023-02-14T15:17:03.640Z,101556.00
2023-02-14T15:19:34.939Z,101552.53
2023-02-14T15:22:02.866Z,101553.62
2023-02-14T15:24:30.547Z,101560.13
2023-02-14T15:26:58.299Z,101553.62
2023-02-14T15:29:27.182Z,101550.28
2023-02-14T15:31:54.533Z,101553.09
2023-02-14T15:34:26.320Z,101550.94
2023-02-14T15:36:57.436Z,101553.00
2023-02-14T15:39:29.373Z,101556.78
2023-02-14T15:41:56.968Z,101556.50
2023-02-14T15:44:26.070Z,101556.63
2023-02-14T15:46:54.619Z,101559.84
2023-02-14T15:49:22.041Z,101566.34
2023-02-14T15:51:49.593Z,101557.06
2023-02-14T15:54:21.489Z,101555.09
2023-02-14T15:56:49.669Z,101560.91
2023-02-14T15:59:18.539Z,101554.31
2023-02-14T16:02:06.580Z,101565.25
2023-02-14T16:04:34.196Z,101576.72
2023-02-14T16:07:20.734Z,101568.63
2023-02-14T16:09:48.684Z,101571.81
2023-02-14T16:12:24.359Z,101571.41
2023-02-14T16:15:22.197Z,101560.91
2023-02-14T16:17:50.142Z,101568.16
2023-02-14T16:20:22.794Z,101573.19
2023-02-14T16:22:52.316Z,101582.78
2023-02-14T16:25:20.072Z,101585.84
2023-02-14T16:27:47.747Z,101585.72
2023-02-14T16:30:15.929Z,101584.84
2023-02-14T16:32:43.765Z,101589.37
2023-02-14T16:35:16.399Z,101591.41
2023-02-14T16:37:46.386Z,101580.97
2023-02-14T16:40:17.337Z,101589.81
2023-02-14T16:42:45.413Z,101593.59
2023-02-14T16:45:19.283Z,101606.25
2023-02-14T16:47:48.036Z,101599.37
2023-02-14T16:50:15.778Z,101604.78
2023-02-14T16:52:43.963Z,101604.47
2023-02-14T16:55:15.527Z,101613.19
2023-02-14T16:57:43.380Z,101601.50
2023-02-14T17:00:12.221Z,101609.03
2023-02-14T17:02:41.848Z,101604.91
2023-02-14T17:05:11.216Z,101614.66
2023-02-14T17:07:38.690Z,101615.22
2023-02-14T17:10:08.660Z,101621.34
2023-02-14T17:12:37.227Z,101612.47
2023-02-14T17:15:14.953Z,101621.16
2023-02-14T17:17:42.570Z,101623.09
2023-02-14T17:20:10.046Z,101636.47
2023-02-14T17:22:37.946Z,101633.37
2023-02-14T17:25:06.195Z,101639.41
2023-02-14T17:27:33.749Z,101641.22
2023-02-14T17:30:02.935Z,101638.69
2023-02-14T17:32:33.136Z,101638.00
2023-02-14T17:35:03.863Z,101652.16
2023-02-14T17:37:32.687Z,101643.87
2023-02-14T17:40:00.405Z,101641.41
2023-02-14T17:42:28.478Z,101639.72
2023-02-14T17:44:56.566Z,101641.84
2023-02-14T17:47:24.694Z,101635.12
2023-02-14T17:49:52.305Z,101649.41
2023-02-14T17:52:22.216Z,101649.25
2023-02-14T17:54:51.433Z,101645.75
2023-02-14T17:57:22.884Z,101643.97
2023-02-14T17:59:52.725Z,101636.19
2023-02-14T18:02:20.576Z,101636.28
2023-02-14T18:04:48.936Z,101622.41
2023-02-14T18:07:17.271Z,101631.19
2023-02-14T18:09:45.261Z,101634.91
2023-02-14T18:12:15.049Z,101629.75
2023-02-14T18:14:43.687Z,101629.28
2023-02-14T18:17:14.911Z,101626.78
2023-02-14T18:19:43.460Z,101630.72
2023-02-14T18:22:12.586Z,101631.34
2023-02-14T18:24:40.727Z,101631.03
2023-02-14T18:27:09.664Z,101620.97
2023-02-14T18:29:39.920Z,101625.31
2023-02-14T18:32:08.570Z,101630.09
2023-02-14T18:34:37.824Z,101627.66
2023-02-14T18:37:06.663Z,101631.41
2023-02-14T18:39:35.157Z,101629.94
2023-02-14T18:42:05.852Z,101622.84
2023-02-14T18:44:34.344Z,101627.59
2023-02-14T18:47:04.272Z,101626.69
2023-02-14T18:49:33.577Z,101625.06
2023-02-14T18:52:01.864Z,101624.34
2023-02-14T18:54:29.756Z,101625.69
2023-02-14T18:56:58.720Z,101629.38
2023-02-14T18:59:26.973Z,101631.34
2023-02-14T19:01:56.709Z,101636.66
2023-02-14T19:04:25.641Z,101635.12
2023-02-14T19:06:53.909Z,101633.22
2023-02-14T19:09:22.322Z,101635.44
2023-02-14T19:11:50.989Z,101633.03
2023-02-14T19:14:27.065Z,101626.97
2023-02-14T19:16:56.016Z,101634.91
2023-02-14T19:19:24.651Z,101629.28
2023-02-14T19:21:55.540Z,101637.03
2023-02-14T19:24:26.246Z,101642.06
2023-02-14T19:26:56.654Z,101637.41
2023-02-14T19:29:27.619Z,101630.56
2023-02-14T19:31:56.876Z,101630.13
2023-02-14T19:34:28.943Z,101643.44
2023-02-14T19:36:59.861Z,101634.13
2023-02-14T19:39:31.763Z,101630.69
2023-02-14T19:42:01.762Z,101628.94
2023-02-14T19:44:34.357Z,101630.22
2023-02-14T19:47:19.257Z,101631.75
2023-02-14T19:49:55.660Z,101629.50
2023-02-14T19:52:26.579Z,101644.63
2023-02-14T19:54:58.950Z,101642.31
2023-02-14T19:57:28.496Z,101643.00
2023-02-14T19:59:57.376Z,101644.09
2023-02-14T20:02:26.924Z,101634.03
2023-02-14T20:04:59.483Z,101639.84
2023-02-14T20:07:28.438Z,101632.28
2023-02-14T20:09:57.683Z,101631.41
2023-02-14T20:12:27.079Z,101633.41
2023-02-14T20:14:57.101Z,101643.44
2023-02-14T20:17:28.440Z,101639.97
2023-02-14T20:19:57.116Z,101635.81
2023-02-14T20:22:27.109Z,101645.75
2023-02-14T20:24:55.680Z,101638.88
2023-02-14T20:27:26.345Z,101639.19
2023-02-14T20:29:55.915Z,101648.94
2023-02-14T20:32:26.992Z,101643.06
2023-02-14T20:34:57.944Z,101641.78
2023-02-14T20:37:29.655Z,101632.38
2023-02-14T20:39:58.763Z,101640.31
2023-02-14T20:42:27.398Z,101640.13
2023-02-14T20:44:56.954Z,101637.69
2023-02-14T20:47:25.875Z,101634.94
2023-02-14T20:49:54.977Z,101630.84
2023-02-14T20:52:26.828Z,101644.69
2023-02-14T20:54:55.985Z,101643.31
2023-02-14T20:57:26.348Z,101648.84
2023-02-14T20:59:57.687Z,101645.03
2023-02-14T21:02:26.740Z,101635.00
2023-02-14T21:04:56.162Z,101630.72
2023-02-14T21:07:26.163Z,101630.94
2023-02-14T21:09:55.872Z,101623.81
2023-02-14T21:12:24.647Z,101623.97
2023-02-14T21:14:54.168Z,101611.69
2023-02-14T21:17:23.250Z,101630.94
2023-02-14T21:19:53.338Z,101632.09
2023-02-14T21:22:21.893Z,101626.34
2023-02-14T21:24:50.391Z,101616.03
2023-02-14T21:27:18.317Z,101629.00
2023-02-14T21:29:47.518Z,101632.63
2023-02-14T21:32:18.413Z,101620.34
2023-02-14T21:34:48.396Z,101632.22
2023-02-14T21:37:17.755Z,101635.50
2023-02-14T21:39:46.848Z,101636.94
2023-02-14T21:42:17.670Z,101624.72
2023-02-14T21:45:05.516Z,101629.75
2023-02-14T21:47:36.812Z,101637.00
2023-02-14T21:50:24.079Z,101628.41
2023-02-14T21:52:54.307Z,101629.28
2023-02-14T21:55:25.628Z,101638.16
2023-02-14T21:57:54.081Z,101645.12
2023-02-14T22:00:22.878Z,101639.66
2023-02-14T22:02:51.147Z,101640.81
2023-02-14T22:05:18.517Z,101635.22
2023-02-14T22:07:47.412Z,101641.06
2023-02-14T22:10:15.110Z,101637.44
2023-02-14T22:12:42.585Z,101647.31
2023-02-14T22:15:10.006Z,101639.09
2023-02-14T22:17:38.599Z,101637.41
2023-02-14T22:20:06.461Z,101632.56
2023-02-14T22:22:34.615Z,101634.38
2023-02-14T22:25:02.305Z,101634.44
2023-02-14T22:27:30.221Z,101636.69
2023-02-14T22:29:57.393Z,101639.66
2023-02-14T22:32:24.902Z,101634.69
2023-02-14T22:34:52.226Z,101643.47
2023-02-14T22:37:19.445Z,101644.19
2023-02-14T22:39:46.902Z,101642.84
2023-02-14T22:42:14.050Z,101649.12
2023-02-14T22:44:41.264Z,101647.47
2023-02-14T22:47:08.712Z,101648.47
2023-02-14T22:49:35.934Z,101651.94
2023-02-14T22:52:03.104Z,101647.72
2023-02-14T22:54:30.632Z,101647.81
2023-02-14T22:56:57.799Z,101651.22
2023-02-14T22:59:25.818Z,101649.28
2023-02-14T23:01:53.345Z,101649.22
2023-02-14T23:04:24.824Z,101650.66
2023-02-14T23:06:52.434Z,101647.81
2023-02-14T23:09:20.271Z,101649.94
2023-02-14T23:11:47.665Z,101650.19
2023-02-14T23:14:34.039Z,101646.91
2023-02-14T23:17:20.394Z,101638.59
2023-02-14T23:20:06.420Z,101631.81
2023-02-14T23:22:35.004Z,101641.81
2023-02-14T23:25:03.632Z,101642.91
2023-02-14T23:27:38.007Z,101641.97
2023-02-14T23:30:07.318Z,101636.69
2023-02-14T23:32:34.478Z,101634.88
2023-02-14T23:35:01.703Z,101636.09
2023-02-14T23:37:29.145Z,101639.59
2023-02-14T23:39:56.435Z,101642.88
2023-02-14T23:42:23.978Z,101636.22
2023-02-14T23:44:51.501Z,101637.00
2023-02-14T23:47:18.668Z,101630.84
2023-02-14T23:49:46.162Z,101641.72
2023-02-14T23:52:13.851Z,101645.53
2023-02-14T23:54:41.098Z,101644.97
2023-02-14T23:57:08.579Z,101650.56
2023-02-14T23:59:36.082Z,101651.72
